Time;durP1;ratioP1;P1;durP2;ratioP2;P2;SDS_P1;SDS_P2;PMS_P1;PMS_P2;Temp;Humidity;BMP_temperature;BMP_pressure;BME280_temperature;BME280_humidity;BME280_pressure;Samples;Min_cycle;Max_cycle;Signal;HPM_P1;HPM_P2
2022/07/22 00:02:17;;;;;;;12.47;8.57;;;20.90;79.60;;;;;;5075547;28;20186;-74
2022/07/22 00:04:42;;;;;;;9.97;8.30;;;20.80;80.00;;;;;;5078970;28;20701;-75
2022/07/22 00:07:08;;;;;;;13.27;8.23;;;20.80;79.90;;;;;;5075887;28;20616;-74
2022/07/22 00:09:34;;;;;;;13.97;8.67;;;20.80;80.00;;;;;;5069978;28;20260;-74
2022/07/22 00:12:00;;;;;;;13.10;8.57;;;20.80;79.90;;;;;;5062435;28;20439;-74
2022/07/22 00:14:25;;;;;;;11.63;8.70;;;20.80;80.30;;;;;;5069782;28;20275;-75
2022/07/22 00:16:51;;;;;;;11.30;8.10;;;20.90;79.60;;;;;;5063325;28;20990;-75
2022/07/22 00:19:17;;;;;;;13.93;8.60;;;20.90;79.20;;;;;;5071372;28;20197;-74
2022/07/22 00:21:42;;;;;;;15.07;8.63;;;20.90;79.20;;;;;;5070583;28;20282;-73
2022/07/22 00:24:08;;;;;;;11.43;8.70;;;21.00;79.00;;;;;;5071318;28;20689;-74
2022/07/22 00:26:34;;;;;;;10.80;8.53;;;21.00;78.70;;;;;;5069867;28;20730;-75
2022/07/22 00:28:59;;;;;;;11.33;8.43;;;21.00;78.70;;;;;;5065886;28;20186;-75
2022/07/22 00:31:25;;;;;;;13.67;7.60;;;21.10;78.70;;;;;;5069979;28;20674;-75
2022/07/22 00:33:51;;;;;;;11.50;7.90;;;21.10;78.40;;;;;;5068853;28;20196;-75
2022/07/22 00:36:16;;;;;;;11.37;7.57;;;21.10;78.00;;;;;;5067897;28;20297;-75
2022/07/22 00:38:42;;;;;;;10.83;7.30;;;21.10;77.70;;;;;;5066179;28;20283;-75
2022/07/22 00:41:07;;;;;;;10.07;7.07;;;21.10;77.70;;;;;;5068463;28;20178;-77
2022/07/22 00:43:52;;;;;;;11.30;7.60;;;21.10;77.80;;;;;;5066502;28;20207;-75
2022/07/22 00:46:18;;;;;;;11.37;8.43;;;21.10;77.70;;;;;;5064240;28;20213;-75
2022/07/22 00:48:43;;;;;;;13.20;8.37;;;21.10;77.70;;;;;;5068629;28;20432;-75
2022/07/22 00:51:09;;;;;;;12.97;8.60;;;21.10;78.60;;;;;;5067790;28;20191;-75
2022/07/22 00:53:35;;;;;;;11.30;8.47;;;21.00;78.90;;;;;;5069236;28;20191;-75
2022/07/22 00:56:02;;;;;;;10.53;7.90;;;20.90;79.50;;;;;;5062084;28;20250;-74
2022/07/22 00:58:27;;;;;;;12.97;8.23;;;20.80;79.90;;;;;;5064293;28;20189;-75
2022/07/22 01:00:53;;;;;;;12.43;8.87;;;20.80;80.00;;;;;;5068887;28;20428;-76
2022/07/22 01:03:18;;;;;;;11.63;8.70;;;20.70;80.30;;;;;;5065024;28;20718;-74
2022/07/22 01:05:44;;;;;;;12.50;8.50;;;20.60;80.60;;;;;;5068056;28;20254;-74
2022/07/22 01:08:10;;;;;;;11.70;8.10;;;20.50;80.50;;;;;;5069319;28;20184;-75
2022/07/22 01:10:35;;;;;;;13.93;9.13;;;20.40;80.60;;;;;;5071672;28;21094;-76
2022/07/22 01:13:01;;;;;;;15.47;9.43;;;20.40;80.90;;;;;;5057095;28;20674;-75
2022/07/22 01:15:27;;;;;;;11.03;7.87;;;20.40;81.20;;;;;;5066169;28;20214;-75
2022/07/22 01:17:52;;;;;;;11.33;8.37;;;20.40;80.90;;;;;;5070744;28;20212;-75
2022/07/22 01:20:18;;;;;;;13.10;7.90;;;20.40;80.60;;;;;;5061621;28;20193;-74
2022/07/22 01:22:44;;;;;;;9.40;7.60;;;20.50;80.20;;;;;;5067936;28;20215;-75
2022/07/22 01:25:10;;;;;;;10.33;8.43;;;20.50;80.00;;;;;;5065244;28;20690;-75
2022/07/22 01:27:36;;;;;;;11.30;8.70;;;20.50;79.90;;;;;;5067759;28;20475;-74
2022/07/22 01:30:04;;;;;;;12.13;8.00;;;20.50;79.90;;;;;;5064259;28;20578;-74
2022/07/22 01:32:30;;;;;;;10.47;8.00;;;20.50;80.00;;;;;;5062578;28;20667;-75
2022/07/22 01:34:55;;;;;;;11.73;8.30;;;20.50;80.20;;;;;;5065872;28;20450;-74
2022/07/22 01:37:21;;;;;;;12.67;8.53;;;20.50;80.00;;;;;;5068788;28;20227;-74
2022/07/22 01:39:48;;;;;;;11.63;8.07;;;20.50;80.20;;;;;;5066328;28;20189;-74
2022/07/22 01:42:13;;;;;;;13.27;8.60;;;20.50;80.20;;;;;;5058845;28;20271;-74
2022/07/22 01:44:39;;;;;;;13.67;9.27;;;20.40;80.20;;;;;;5067217;28;20941;-74
2022/07/22 01:47:05;;;;;;;17.33;9.00;;;20.40;80.30;;;;;;5068151;28;20268;-75
2022/07/22 01:49:31;;;;;;;14.30;9.63;;;20.40;80.60;;;;;;5067327;28;20189;-75
2022/07/22 01:51:56;;;;;;;11.27;7.87;;;20.40;80.50;;;;;;5069808;28;20189;-75
2022/07/22 01:54:22;;;;;;;11.70;8.70;;;20.40;80.80;;;;;;5061001;28;20194;-76
2022/07/22 01:56:48;;;;;;;12.37;8.23;;;20.40;81.10;;;;;;5064161;28;20217;-77
2022/07/22 01:59:13;;;;;;;14.60;8.20;;;20.30;81.20;;;;;;5065021;28;20195;-75
2022/07/22 02:01:39;;;;;;;15.50;8.80;;;20.40;81.70;;;;;;5059779;28;20184;-75
2022/07/22 02:04:04;;;;;;;11.63;8.70;;;20.40;81.10;;;;;;5062531;28;20204;-74
2022/07/22 02:06:31;;;;;;;10.53;8.60;;;20.30;81.10;;;;;;5068852;28;20216;-75
2022/07/22 02:08:56;;;;;;;12.50;9.60;;;20.30;81.40;;;;;;5062995;28;20286;-75
2022/07/22 02:11:22;;;;;;;12.07;9.00;;;20.40;81.10;;;;;;5063980;28;20494;-75
2022/07/22 02:13:48;;;;;;;12.00;8.83;;;20.30;81.70;;;;;;5068188;28;20190;-74
2022/07/22 02:16:13;;;;;;;14.50;9.40;;;20.30;81.70;;;;;;5068978;28;20220;-75
2022/07/22 02:18:39;;;;;;;13.57;9.23;;;20.30;81.10;;;;;;5057709;28;20181;-74
2022/07/22 02:21:05;;;;;;;13.00;8.90;;;20.30;81.40;;;;;;5067520;28;20213;-75
2022/07/22 02:23:30;;;;;;;13.57;9.40;;;20.20;81.90;;;;;;5067136;28;20215;-74
2022/07/22 02:25:56;;;;;;;13.30;9.50;;;20.30;81.90;;;;;;5069768;28;20209;-75
2022/07/22 02:28:21;;;;;;;11.80;8.70;;;20.20;81.90;;;;;;5065769;28;20688;-75
2022/07/22 02:30:47;;;;;;;13.60;9.10;;;20.20;81.70;;;;;;5067449;28;20979;-74
2022/07/22 02:33:14;;;;;;;14.97;9.63;;;20.20;82.10;;;;;;5063418;28;20697;-75
2022/07/22 02:35:40;;;;;;;14.50;9.57;;;20.20;81.80;;;;;;5070678;28;20208;-74
2022/07/22 02:38:05;;;;;;;14.03;9.07;;;20.10;81.90;;;;;;5071814;28;20434;-76
2022/07/22 02:40:31;;;;;;;12.00;8.87;;;20.10;81.80;;;;;;5074794;28;20192;-74
2022/07/22 02:42:57;;;;;;;13.10;9.47;;;20.10;81.90;;;;;;5070947;28;20243;-75
2022/07/22 02:45:23;;;;;;;14.00;9.00;;;20.00;82.10;;;;;;5064416;28;21104;-75
2022/07/22 02:47:53;;;;;;;13.40;9.33;;;20.00;82.50;;;;;;5073721;28;20400;-75
2022/07/22 02:50:19;;;;;;;14.43;8.63;;;20.00;82.70;;;;;;5070672;28;20241;-74
2022/07/22 02:52:45;;;;;;;13.40;8.80;;;20.00;82.50;;;;;;5072725;28;20419;-74
2022/07/22 02:55:10;;;;;;;12.03;9.13;;;20.00;82.50;;;;;;5070575;28;20447;-74
2022/07/22 02:57:36;;;;;;;13.30;9.23;;;20.00;82.70;;;;;;5066110;28;20648;-74
2022/07/22 03:00:03;;;;;;;15.60;10.03;;;20.00;82.80;;;;;;5077719;28;20184;-75
2022/07/22 03:02:29;;;;;;;14.77;9.80;;;19.90;82.80;;;;;;5065141;28;20177;-75
2022/07/22 03:04:55;;;;;;;14.37;9.30;;;19.90;82.80;;;;;;5064098;28;21288;-74
2022/07/22 03:07:21;;;;;;;14.17;9.80;;;19.90;83.00;;;;;;5064933;28;20514;-75
2022/07/22 03:09:46;;;;;;;17.10;10.93;;;19.90;83.30;;;;;;5072844;28;20673;-75
2022/07/22 03:12:12;;;;;;;18.10;11.53;;;19.80;83.30;;;;;;5072623;28;20553;-75
2022/07/22 03:14:37;;;;;;;17.43;10.60;;;19.60;83.80;;;;;;5070172;28;20184;-73
2022/07/22 03:17:03;;;;;;;15.70;11.20;;;19.60;83.80;;;;;;5065751;28;20675;-75
2022/07/22 03:19:29;;;;;;;17.90;12.00;;;19.70;84.00;;;;;;5069173;28;20184;-75
2022/07/22 03:21:54;;;;;;;19.27;12.77;;;19.70;84.00;;;;;;5067549;28;20180;-74
2022/07/22 03:24:20;;;;;;;18.83;12.70;;;19.60;84.00;;;;;;5068528;28;20612;-75
2022/07/22 03:26:46;;;;;;;20.00;12.70;;;19.50;84.60;;;;;;5069114;28;20195;-74
2022/07/22 03:29:11;;;;;;;17.17;11.77;;;19.50;84.60;;;;;;5072678;28;20198;-73
2022/07/22 03:31:37;;;;;;;19.10;12.53;;;19.50;84.70;;;;;;5070500;28;20776;-75
2022/07/22 03:34:02;;;;;;;17.80;12.63;;;19.50;84.90;;;;;;5073228;28;20183;-74
2022/07/22 03:36:29;;;;;;;21.10;13.80;;;19.50;85.00;;;;;;5072911;28;20686;-74
2022/07/22 03:38:55;;;;;;;20.40;13.13;;;19.40;85.60;;;;;;5080228;28;20184;-74
2022/07/22 03:41:21;;;;;;;22.20;13.53;;;19.30;85.90;;;;;;5075544;28;20421;-74
2022/07/22 03:43:47;;;;;;;20.77;13.17;;;19.20;86.30;;;;;;5074994;28;20230;-74
2022/07/22 03:46:12;;;;;;;24.77;13.10;;;19.20;86.60;;;;;;5063584;28;20234;-74
2022/07/22 03:48:38;;;;;;;17.90;12.30;;;19.10;87.00;;;;;;5073941;28;20459;-75
2022/07/22 03:51:04;;;;;;;18.87;12.53;;;19.10;87.30;;;;;;5064767;28;20243;-74
2022/07/22 03:53:29;;;;;;;20.27;13.40;;;19.10;87.00;;;;;;5071142;28;20186;-74
2022/07/22 03:55:55;;;;;;;18.40;11.50;;;19.10;87.10;;;;;;5069480;28;20213;-73
2022/07/22 03:58:21;;;;;;;16.60;11.60;;;19.10;87.00;;;;;;5064774;28;20184;-74
2022/07/22 04:00:46;;;;;;;20.40;12.33;;;19.30;86.80;;;;;;5062726;28;20184;-73
2022/07/22 04:03:12;;;;;;;26.27;11.57;;;19.40;86.00;;;;;;5071077;28;20206;-75
2022/07/22 04:05:38;;;;;;;17.63;11.40;;;19.40;86.00;;;;;;5065980;28;20202;-73
2022/07/22 04:08:03;;;;;;;18.43;12.60;;;19.40;86.20;;;;;;5071495;28;20190;-74
2022/07/22 04:10:29;;;;;;;18.10;11.53;;;19.30;86.00;;;;;;5069641;28;20180;-74
2022/07/22 04:12:55;;;;;;;21.80;12.50;;;19.40;86.00;;;;;;5071140;28;20452;-74
2022/07/22 04:15:20;;;;;;;20.63;12.63;;;19.40;85.90;;;;;;5065551;28;20226;-74
2022/07/22 04:17:46;;;;;;;20.53;13.57;;;19.20;86.60;;;;;;5070860;28;20204;-76
2022/07/22 04:20:12;;;;;;;34.43;14.40;;;19.00;87.10;;;;;;5071302;28;20190;-74
2022/07/22 04:22:38;;;;;;;22.07;12.57;;;19.00;87.40;;;;;;5075224;28;20237;-73
2022/07/22 04:25:04;;;;;;;21.50;13.80;;;19.00;87.60;;;;;;5071704;28;20456;-74
2022/07/22 04:27:29;;;;;;;19.53;12.30;;;19.00;87.60;;;;;;5077035;28;20186;-75
2022/07/22 04:29:55;;;;;;;20.40;13.17;;;19.00;87.60;;;;;;5074412;28;20441;-74
2022/07/22 04:32:20;;;;;;;19.90;12.67;;;19.10;87.40;;;;;;5070278;28;20679;-74
2022/07/22 04:34:46;;;;;;;19.57;13.00;;;19.10;87.30;;;;;;5067433;28;20206;-74
2022/07/22 04:37:11;;;;;;;23.63;11.80;;;19.20;87.10;;;;;;5070144;28;20298;-74
2022/07/22 04:39:37;;;;;;;18.83;11.90;;;19.20;87.10;;;;;;5067864;28;20271;-75
2022/07/22 04:42:03;;;;;;;17.70;12.40;;;19.30;86.80;;;;;;5067811;28;20187;-74
2022/07/22 04:44:29;;;;;;;23.33;12.57;;;19.40;86.20;;;;;;5065020;28;20222;-74
2022/07/22 04:46:54;;;;;;;20.93;11.87;;;19.50;86.00;;;;;;5063924;28;20480;-74
2022/07/22 04:49:20;;;;;;;22.30;13.63;;;19.60;85.50;;;;;;5064900;28;20246;-74
2022/07/22 04:51:45;;;;;;;23.40;14.13;;;19.70;84.90;;;;;;5071816;28;20190;-73
2022/07/22 04:54:11;;;;;;;22.37;13.30;;;19.60;85.20;;;;;;5071049;28;20176;-73
2022/07/22 04:56:37;;;;;;;19.50;13.03;;;19.50;85.60;;;;;;5068071;28;20225;-74
2022/07/22 04:59:03;;;;;;;20.57;12.40;;;19.50;85.90;;;;;;5064489;28;21687;-74
2022/07/22 05:01:28;;;;;;;19.00;12.40;;;19.60;85.70;;;;;;5067459;28;20198;-74
2022/07/22 05:03:54;;;;;;;19.70;12.23;;;19.70;85.50;;;;;;5062783;28;20199;-73
2022/07/22 05:06:19;;;;;;;20.60;12.70;;;19.80;85.00;;;;;;5068526;28;20702;-74
2022/07/22 05:08:45;;;;;;;18.40;12.97;;;19.80;84.40;;;;;;5067907;28;20173;-75
2022/07/22 05:11:11;;;;;;;22.70;13.00;;;19.80;84.40;;;;;;5068614;28;20218;-74
2022/07/22 05:13:37;;;;;;;16.70;12.17;;;19.80;84.40;;;;;;5071032;28;20188;-75
2022/07/22 05:16:07;;;;;;;19.40;11.83;;;19.80;84.60;;;;;;5068695;28;20465;-72
2022/07/22 05:18:33;;;;;;;19.90;13.00;;;19.90;84.40;;;;;;5069818;28;20180;-72
2022/07/22 05:20:59;;;;;;;22.20;13.53;;;19.80;84.40;;;;;;5070257;28;20461;-73
2022/07/22 05:23:24;;;;;;;21.03;12.77;;;19.70;85.00;;;;;;5070784;28;20552;-74
2022/07/22 05:25:50;;;;;;;21.30;13.50;;;19.80;84.90;;;;;;5068382;28;20200;-75
2022/07/22 05:28:17;;;;;;;23.60;15.00;;;19.80;84.70;;;;;;5065083;28;20567;-75
2022/07/22 05:30:42;;;;;;;19.63;13.33;;;19.90;84.60;;;;;;5063043;28;20425;-74
2022/07/22 05:33:08;;;;;;;22.17;14.20;;;19.90;84.60;;;;;;5062678;28;20212;-74
2022/07/22 05:35:34;;;;;;;22.00;13.50;;;19.80;84.60;;;;;;5067445;28;21084;-73
2022/07/22 05:37:59;;;;;;;23.23;14.40;;;19.70;85.30;;;;;;5067188;28;20457;-73
2022/07/22 05:40:25;;;;;;;21.73;13.83;;;19.70;85.30;;;;;;5069779;28;20276;-73
2022/07/22 05:42:50;;;;;;;21.40;12.90;;;19.70;85.20;;;;;;5068740;28;20212;-72
2022/07/22 05:45:16;;;;;;;25.83;13.27;;;19.80;85.00;;;;;;5057969;28;20235;-75
2022/07/22 05:47:42;;;;;;;18.80;12.27;;;19.90;84.70;;;;;;5068682;28;20181;-73
2022/07/22 05:50:08;;;;;;;21.03;14.03;;;20.00;84.40;;;;;;5068107;28;20277;-73
2022/07/22 05:52:36;;;;;;;20.40;13.10;;;19.90;84.10;;;;;;5069192;28;20196;-72
2022/07/22 05:55:02;;;;;;;21.73;13.37;;;19.90;84.60;;;;;;5060342;28;20494;-73
2022/07/22 05:57:27;;;;;;;23.53;13.60;;;20.00;84.30;;;;;;5068647;28;20879;-72
2022/07/22 05:59:53;;;;;;;20.53;13.90;;;20.10;83.80;;;;;;5069034;28;20187;-74
2022/07/22 06:02:19;;;;;;;20.43;13.67;;;20.10;83.70;;;;;;5067721;28;20268;-72
2022/07/22 06:04:44;;;;;;;19.77;12.77;;;20.10;83.70;;;;;;5055246;28;20187;-75
2022/07/22 06:07:10;;;;;;;19.30;12.30;;;20.20;83.40;;;;;;5068726;28;20181;-73
2022/07/22 06:09:36;;;;;;;19.87;12.60;;;20.30;83.10;;;;;;5062912;28;20644;-73
2022/07/22 06:12:02;;;;;;;27.17;14.10;;;20.30;82.70;;;;;;5068452;28;20703;-73
2022/07/22 06:14:27;;;;;;;17.27;12.50;;;20.30;82.80;;;;;;5062983;28;20177;-74
2022/07/22 06:16:53;;;;;;;21.43;14.57;;;20.40;82.80;;;;;;5059844;28;20611;-73
2022/07/22 06:19:18;;;;;;;20.80;13.30;;;20.50;82.20;;;;;;5060353;28;20668;-74
2022/07/22 06:21:44;;;;;;;23.23;13.10;;;20.50;82.10;;;;;;5067846;28;20188;-76
2022/07/22 06:24:10;;;;;;;20.00;13.03;;;20.40;82.20;;;;;;5062879;28;20211;-74
2022/07/22 06:26:35;;;;;;;19.43;12.50;;;20.50;82.10;;;;;;5067704;28;20263;-74
2022/07/22 06:29:01;;;;;;;19.60;13.40;;;20.60;81.70;;;;;;5060804;28;20228;-73
2022/07/22 06:31:26;;;;;;;18.10;13.00;;;20.70;81.50;;;;;;5059844;28;20226;-73
2022/07/22 06:33:52;;;;;;;23.50;14.20;;;20.70;81.20;;;;;;5070882;28;20691;-73
2022/07/22 06:36:18;;;;;;;21.00;14.20;;;20.70;81.10;;;;;;5068075;28;20223;-74
2022/07/22 06:38:44;;;;;;;24.40;14.57;;;20.80;81.10;;;;;;5061487;28;20207;-73
2022/07/22 06:41:10;;;;;;;20.50;13.53;;;20.80;81.10;;;;;;5066660;28;20187;-73
2022/07/22 06:43:35;;;;;;;19.03;13.47;;;20.70;81.20;;;;;;5075891;28;20502;-74
2022/07/22 06:46:01;;;;;;;21.20;14.00;;;20.80;81.10;;;;;;5076184;28;20568;-73
2022/07/22 06:48:27;;;;;;;25.00;14.97;;;20.80;81.10;;;;;;5078242;28;20181;-73
2022/07/22 06:50:53;;;;;;;28.43;14.23;;;20.80;81.10;;;;;;5070482;28;20423;-73
2022/07/22 06:53:19;;;;;;;18.20;14.00;;;21.00;80.60;;;;;;5078951;28;20200;-73
2022/07/22 06:55:44;;;;;;;23.47;14.90;;;21.00;80.00;;;;;;5071735;28;20845;-74
2022/07/22 06:58:10;;;;;;;25.43;14.77;;;20.90;80.20;;;;;;5081055;28;20209;-75
2022/07/22 07:00:36;;;;;;;23.20;14.50;;;20.90;80.90;;;;;;5071225;28;20243;-73
2022/07/22 07:03:01;;;;;;;20.27;12.90;;;20.90;80.90;;;;;;5066022;28;20679;-74
2022/07/22 07:05:28;;;;;;;22.93;14.90;;;21.10;80.30;;;;;;5069520;28;20303;-74
2022/07/22 07:07:55;;;;;;;20.73;13.83;;;21.10;79.90;;;;;;5079997;28;20261;-73
2022/07/22 07:10:21;;;;;;;18.80;13.10;;;21.20;79.60;;;;;;5079775;28;20427;-74
2022/07/22 07:12:47;;;;;;;22.57;14.03;;;21.40;79.30;;;;;;5074813;28;20436;-73
2022/07/22 07:15:12;;;;;;;23.60;13.90;;;21.50;78.70;;;;;;5071169;28;20607;-75
2022/07/22 07:17:38;;;;;;;20.03;13.60;;;21.60;78.40;;;;;;5068255;28;20639;-72
2022/07/22 07:20:05;;;;;;;21.03;13.30;;;21.60;78.10;;;;;;5068713;28;20270;-73
2022/07/22 07:22:31;;;;;;;21.17;14.70;;;21.60;78.60;;;;;;5069605;28;20212;-72
2022/07/22 07:25:01;;;;;;;19.40;13.60;;;21.60;77.80;;;;;;5070655;28;20954;-72
2022/07/22 07:27:27;;;;;;;20.93;14.13;;;21.40;78.70;;;;;;5066352;28;20412;-73
2022/07/22 07:29:52;;;;;;;23.10;13.90;;;21.50;78.60;;;;;;5069849;28;20436;-74
2022/07/22 07:32:18;;;;;;;23.10;14.40;;;21.60;77.80;;;;;;5064582;28;20185;-73
2022/07/22 07:34:43;;;;;;;18.23;12.67;;;21.70;77.80;;;;;;5064914;28;20632;-75
2022/07/22 07:37:09;;;;;;;18.47;12.70;;;21.90;77.60;;;;;;5066205;28;20301;-74
2022/07/22 07:39:35;;;;;;;22.00;13.70;;;22.00;76.80;;;;;;5067338;28;20670;-72
2022/07/22 07:42:00;;;;;;;25.73;14.20;;;22.00;76.40;;;;;;5066579;28;20198;-73
2022/07/22 07:44:26;;;;;;;20.77;14.03;;;22.00;76.70;;;;;;5068025;28;20293;-73
2022/07/22 07:46:52;;;;;;;24.07;14.00;;;22.10;76.10;;;;;;5074892;28;20205;-74
2022/07/22 07:49:17;;;;;;;23.47;14.00;;;22.20;76.20;;;;;;5073518;28;20199;-72
2022/07/22 07:51:43;;;;;;;21.13;13.70;;;22.20;75.90;;;;;;5076475;28;20187;-75
2022/07/22 07:54:08;;;;;;;22.03;13.80;;;22.20;76.20;;;;;;5071571;28;20193;-74
2022/07/22 07:56:34;;;;;;;18.47;12.47;;;22.30;76.10;;;;;;5074032;28;20239;-72
2022/07/22 07:59:00;;;;;;;22.10;13.70;;;22.50;75.70;;;;;;5071540;28;20744;-72
2022/07/22 08:01:25;;;;;;;24.03;13.20;;;22.60;75.50;;;;;;5067702;28;20185;-72
2022/07/22 08:03:51;;;;;;;21.27;12.83;;;22.70;75.20;;;;;;5070556;28;20591;-73
2022/07/22 08:06:16;;;;;;;21.50;13.23;;;22.80;74.90;;;;;;5062595;28;20629;-73
2022/07/22 08:08:42;;;;;;;22.27;14.30;;;22.90;74.50;;;;;;5065119;28;20266;-74
2022/07/22 08:11:08;;;;;;;23.20;14.47;;;22.90;74.30;;;;;;5062994;28;20531;-73
2022/07/22 08:13:33;;;;;;;26.00;14.57;;;22.80;74.30;;;;;;5067956;28;20194;-72
2022/07/22 08:15:59;;;;;;;22.50;13.70;;;22.80;74.80;;;;;;5063516;28;21853;-74
2022/07/22 08:18:25;;;;;;;22.20;14.57;;;22.90;74.60;;;;;;5062533;28;20240;-74
2022/07/22 08:20:51;;;;;;;22.33;14.30;;;23.00;74.20;;;;;;5069483;28;20270;-73
2022/07/22 08:23:17;;;;;;;27.10;15.00;;;23.10;73.90;;;;;;5065322;28;20978;-73
2022/07/22 08:25:42;;;;;;;22.47;14.37;;;23.20;73.50;;;;;;5060778;28;20194;-73
2022/07/22 08:28:08;;;;;;;25.07;14.00;;;23.30;72.70;;;;;;5067603;28;20198;-74
2022/07/22 08:30:34;;;;;;;24.67;15.00;;;23.40;72.90;;;;;;5060008;28;20314;-74
2022/07/22 08:33:00;;;;;;;22.00;13.93;;;23.30;72.70;;;;;;5069034;28;20280;-74
2022/07/22 08:35:25;;;;;;;20.93;15.37;;;23.20;73.00;;;;;;5060533;28;20544;-72
2022/07/22 08:37:51;;;;;;;29.43;15.10;;;23.20;72.90;;;;;;5066391;28;20622;-74
2022/07/22 08:40:17;;;;;;;23.40;13.30;;;23.10;73.30;;;;;;5072011;28;20190;-72
2022/07/22 08:42:45;;;;;;;20.57;12.77;;;23.30;72.60;;;;;;5070005;28;20198;-73
2022/07/22 08:45:11;;;;;;;20.30;14.37;;;23.50;72.00;;;;;;5069237;28;20955;-73
2022/07/22 08:47:37;;;;;;;25.90;14.50;;;23.70;71.00;;;;;;5076596;28;20513;-75
2022/07/22 08:50:03;;;;;;;19.87;13.57;;;23.60;71.10;;;;;;5074514;28;20415;-74
2022/07/22 08:52:29;;;;;;;20.50;12.60;;;23.80;71.10;;;;;;5072199;28;20420;-74
2022/07/22 08:54:55;;;;;;;20.00;12.50;;;24.00;70.50;;;;;;5072680;28;20526;-72
2022/07/22 08:57:21;;;;;;;20.27;13.90;;;24.20;70.20;;;;;;5070133;28;20193;-71
2022/07/22 08:59:54;;;;;;;20.53;13.10;;;24.30;69.10;;;;;;5070914;28;20195;-73
2022/07/22 09:02:21;;;;;;;18.13;12.60;;;24.30;68.80;;;;;;5066603;28;20183;-74
2022/07/22 09:05:01;;;;;;;20.77;13.57;;;24.50;68.30;;;;;;5067321;28;21026;-72
2022/07/22 09:07:35;;;;;;;20.13;13.07;;;24.50;68.20;;;;;;5065874;28;20417;-73
2022/07/22 09:10:04;;;;;;;20.97;13.60;;;24.60;68.00;;;;;;5063929;28;20948;-73
2022/07/22 09:12:32;;;;;;;19.53;12.20;;;24.60;67.90;;;;;;5054771;28;20425;-73
2022/07/22 09:15:00;;;;;;;18.47;13.90;;;24.70;68.00;;;;;;5066778;28;21282;-74
2022/07/22 09:17:32;;;;;;;19.97;13.10;;;24.80;67.50;;;;;;5070021;28;20445;-72
2022/07/22 09:19:59;;;;;;;19.07;13.87;;;24.80;66.90;;;;;;5064403;28;20841;-72
2022/07/22 09:22:36;;;;;;;18.87;13.70;;;24.60;67.60;;;;;;5059545;28;20473;-73
2022/07/22 09:25:38;;;;;;;23.53;13.47;;;24.80;67.50;;;;;;5064912;28;20834;-73
2022/07/22 09:28:06;;;;;;;19.13;13.00;;;25.00;67.20;;;;;;5063562;28;20437;-73
2022/07/22 09:30:37;;;;;;;18.73;13.30;;;25.10;66.90;;;;;;5061601;28;20477;-73
2022/07/22 09:33:03;;;;;;;22.13;12.60;;;25.20;66.30;;;;;;5066925;28;20460;-72
2022/07/22 09:35:30;;;;;;;21.10;13.33;;;25.20;66.10;;;;;;5065556;28;20504;-74
2022/07/22 09:37:56;;;;;;;18.37;12.93;;;25.20;66.30;;;;;;5064047;28;20448;-75
2022/07/22 09:40:23;;;;;;;15.73;12.17;;;25.30;66.10;;;;;;5066110;28;20419;-72
2022/07/22 09:42:51;;;;;;;16.43;12.20;;;25.40;65.80;;;;;;5065096;28;21099;-74
2022/07/22 09:45:17;;;;;;;17.57;12.80;;;25.50;65.60;;;;;;5070136;28;20461;-72
2022/07/22 09:47:44;;;;;;;19.77;11.30;;;25.60;65.40;;;;;;5068357;28;20948;-73
2022/07/22 09:50:18;;;;;;;17.93;12.90;;;25.70;65.10;;;;;;5068059;28;20677;-74
2022/07/22 09:52:44;;;;;;;25.83;12.87;;;25.80;63.50;;;;;;5063126;28;20421;-73
2022/07/22 09:55:10;;;;;;;17.87;12.83;;;25.80;63.50;;;;;;5056961;28;21139;-73
2022/07/22 09:57:36;;;;;;;18.40;12.60;;;25.60;64.10;;;;;;5064582;28;21100;-73
2022/07/22 10:00:03;;;;;;;16.57;11.90;;;25.70;63.40;;;;;;5059707;28;20263;-73
2022/07/22 10:02:30;;;;;;;16.93;12.23;;;25.70;63.50;;;;;;5066012;28;20575;-73
2022/07/22 10:04:58;;;;;;;15.60;11.27;;;26.00;63.40;;;;;;5067964;28;20464;-73
2022/07/22 10:07:26;;;;;;;15.77;11.80;;;26.10;63.10;;;;;;5071037;28;20417;-74
2022/07/22 10:09:53;;;;;;;19.37;12.40;;;26.30;62.20;;;;;;5073184;28;20421;-73
2022/07/22 10:12:19;;;;;;;19.67;12.37;;;26.60;61.60;;;;;;5062400;28;20426;-73
2022/07/22 10:14:46;;;;;;;21.10;12.70;;;26.90;60.30;;;;;;5071950;28;20787;-73
2022/07/22 10:17:15;;;;;;;18.13;12.77;;;26.80;60.60;;;;;;5071337;28;20475;-73
2022/07/22 10:19:41;;;;;;;18.33;11.00;;;27.00;60.60;;;;;;5065682;28;20796;-73
2022/07/22 10:22:47;;;;;;;19.00;12.10;;;27.40;59.90;;;;;;5063573;28;20460;-73
2022/07/22 10:25:13;;;;;;;14.33;10.77;;;27.60;58.70;;;;;;5061098;28;20240;-74
2022/07/22 10:27:49;;;;;;;16.73;11.97;;;27.30;59.30;;;;;;5069885;28;20409;-73
2022/07/22 10:30:18;;;;;;;18.70;12.47;;;27.60;59.10;;;;;;5070081;28;20413;-74
2022/07/22 10:32:44;;;;;;;14.50;11.23;;;27.90;58.00;;;;;;5065062;28;20409;-73
2022/07/22 10:35:09;;;;;;;15.63;11.83;;;27.70;58.50;;;;;;5063598;28;20450;-74
2022/07/22 10:37:37;;;;;;;14.07;10.60;;;27.80;58.20;;;;;;5069543;28;20950;-73
2022/07/22 10:40:14;;;;;;;13.53;11.17;;;28.00;58.10;;;;;;5068570;28;21512;-73
2022/07/22 10:43:08;;;;;;;15.20;10.70;;;28.40;56.80;;;;;;5068981;28;20409;-74
2022/07/22 10:45:57;;;;;;;14.20;10.27;;;29.00;55.80;;;;;;5070118;28;20438;-73
2022/07/22 10:48:43;;;;;;;13.30;10.90;;;28.70;55.60;;;;;;5062242;28;20406;-73
2022/07/22 10:51:13;;;;;;;14.07;12.47;;;28.50;56.10;;;;;;5075616;28;20491;-73
2022/07/22 10:53:55;;;;;;;17.03;11.90;;;28.40;56.40;;;;;;5073005;28;20425;-73
2022/07/22 10:56:23;;;;;;;16.93;11.50;;;28.80;56.00;;;;;;5067273;28;20454;-74
2022/07/22 10:58:57;;;;;;;15.53;11.50;;;28.70;55.70;;;;;;5067279;28;20493;-74
2022/07/22 11:01:29;;;;;;;16.40;12.10;;;28.70;55.80;;;;;;5071334;28;20418;-73
2022/07/22 11:04:06;;;;;;;16.43;11.20;;;29.00;55.60;;;;;;5066091;28;20852;-74
2022/07/22 11:06:31;;;;;;;16.93;11.23;;;29.20;54.60;;;;;;5066104;28;20845;-73
2022/07/22 11:09:00;;;;;;;14.80;11.40;;;29.40;54.50;;;;;;5069891;28;20422;-74
2022/07/22 11:11:36;;;;;;;13.27;11.13;;;29.90;53.30;;;;;;5070073;28;20176;-73
2022/07/22 11:14:02;;;;;;;13.73;10.80;;;29.90;53.20;;;;;;5065711;28;20433;-74
2022/07/22 11:16:28;;;;;;;15.70;10.97;;;30.20;52.00;;;;;;5064456;28;20469;-73
2022/07/22 11:19:00;;;;;;;16.53;12.00;;;30.10;51.80;;;;;;5069377;28;20245;-74
2022/07/22 11:21:30;;;;;;;15.27;11.60;;;29.70;52.90;;;;;;5070836;28;20480;-73
2022/07/22 11:23:58;;;;;;;13.80;11.17;;;29.30;53.30;;;;;;5061546;28;20463;-74
2022/07/22 11:26:45;;;;;;;14.70;11.17;;;29.20;54.20;;;;;;5068614;28;20454;-74
2022/07/22 11:29:25;;;;;;;15.77;11.40;;;29.30;53.00;;;;;;5062941;28;20928;-74
2022/07/22 11:31:51;;;;;;;68.33;15.50;;;29.40;53.00;;;;;;5066228;28;20440;-75
2022/07/22 11:34:17;;;;;;;17.43;9.90;;;29.60;52.60;;;;;;5078687;28;20438;-74
2022/07/22 11:36:44;;;;;;;12.80;10.37;;;30.00;51.60;;;;;;5071085;28;20208;-74
2022/07/22 11:39:12;;;;;;;25.40;12.10;;;30.40;50.10;;;;;;5073432;28;20422;-73
2022/07/22 11:41:38;;;;;;;15.30;10.50;;;30.80;47.30;;;;;;5071279;28;20861;-73
2022/07/22 11:44:05;;;;;;;13.80;9.90;;;31.00;47.10;;;;;;5078336;28;20523;-72
2022/07/22 11:46:42;;;;;;;15.63;8.63;;;31.20;45.50;;;;;;5069606;28;20569;-74
2022/07/22 11:49:09;;;;;;;11.97;9.30;;;31.30;44.30;;;;;;5074421;28;20423;-75
2022/07/22 11:51:37;;;;;;;14.23;11.10;;;30.80;45.30;;;;;;5073075;28;20517;-73
2022/07/22 11:54:03;;;;;;;12.43;10.33;;;30.60;45.90;;;;;;5066818;28;20530;-73
2022/07/22 11:56:30;;;;;;;12.90;10.50;;;30.60;46.30;;;;;;5069362;28;20476;-72
2022/07/22 11:58:56;;;;;;;12.43;9.00;;;30.80;46.30;;;;;;5070091;28;20891;-74
2022/07/22 12:01:29;;;;;;;10.17;8.80;;;31.20;46.50;;;;;;5069442;28;20467;-74
2022/07/22 12:03:59;;;;;;;14.77;9.90;;;31.70;44.50;;;;;;5066735;28;20485;-75
2022/07/22 12:06:27;;;;;;;10.10;8.70;;;32.40;43.90;;;;;;5066988;28;20449;-73
2022/07/22 12:09:02;;;;;;;14.40;9.80;;;32.30;43.50;;;;;;5067626;28;20423;-73
2022/07/22 12:11:29;;;;;;;12.57;9.70;;;32.50;43.10;;;;;;5063912;28;20409;-72
2022/07/22 12:13:55;;;;;;;11.53;9.53;;;32.80;42.80;;;;;;5066779;28;20490;-73
2022/07/22 12:16:24;;;;;;;12.17;9.90;;;33.00;43.00;;;;;;5066508;28;20645;-74
2022/07/22 12:19:13;;;;;;;13.00;9.77;;;33.40;42.00;;;;;;5063591;28;20261;-74
2022/07/22 12:22:21;;;;;;;12.23;9.07;;;33.40;41.50;;;;;;5062207;28;20414;-73
2022/07/22 12:25:01;;;;;;;11.10;9.30;;;33.50;41.60;;;;;;5061223;28;20475;-73
2022/07/22 12:27:26;;;;;;;13.30;10.50;;;33.60;41.60;;;;;;5062117;28;20427;-75
2022/07/22 12:29:52;;;;;;;12.27;9.63;;;33.80;41.50;;;;;;5068520;28;20515;-74
2022/07/22 12:32:23;;;;;;;10.67;7.97;;;33.20;39.60;;;;;;5066249;28;20864;-74